Ho Chi Minh City, Vietnam
Current Conditions -  °F | °C
As of 3:00 PM on Thursday 23 Oct 2014 (Local Time) from VVTS Reporting Station
Thunderstorm Thunderstorm  
Wind Chill: 75°   Ceiling: 4000
Heat Index: 75°   Visibility: 4mi
Dew Point: 73°   Wind: 8mph
Humidity: 94%   Direction: 240°WSW
Pressure: 29.8"   Gusts: NA
Location:  10.78°N, 106.69°E
Report Text: VVTS 230800Z 24007KT 200V260 7000 TSRA SCT013 SCT015CB BKN040 24/23 Q1009 BECMG TL0820 5000 TSRA
Loading
Personal Weather Stations






























Interactive Weather Map New forecast layout! Learn more

10-Day Weather Forecast

Advertisements
Track Severe Weather on mobile